sensor_id;sensor_type;location;lat;lon;timestamp;pressure;altitude;pressure_sealevel;temperature;humidity
72308;BME280;60257;42.638;23.376;2023-05-08T00:01:15;94767.78;;;12.76;61.75
72308;BME280;60257;42.638;23.376;2023-05-08T00:03:41;94766.03;;;12.68;61.64
72308;BME280;60257;42.638;23.376;2023-05-08T00:06:06;94777.09;;;12.71;61.55
72308;BME280;60257;42.638;23.376;2023-05-08T00:08:32;94780.66;;;12.72;61.84
72308;BME280;60257;42.638;23.376;2023-05-08T00:10:57;94779.44;;;12.69;61.43
72308;BME280;60257;42.638;23.376;2023-05-08T00:13:22;94779.34;;;12.66;61.75
72308;BME280;60257;42.638;23.376;2023-05-08T00:15:48;94777.72;;;12.65;61.79
72308;BME280;60257;42.638;23.376;2023-05-08T00:18:14;94786.00;;;12.65;61.92
72308;BME280;60257;42.638;23.376;2023-05-08T00:20:40;94776.59;;;12.50;62.56
72308;BME280;60257;42.638;23.376;2023-05-08T00:23:07;94774.03;;;12.57;62.11
72308;BME280;60257;42.638;23.376;2023-05-08T00:25:32;94778.38;;;12.58;62.33
72308;BME280;60257;42.638;23.376;2023-05-08T00:27:58;94777.06;;;12.52;62.34
72308;BME280;60257;42.638;23.376;2023-05-08T00:30:24;94771.63;;;12.40;62.50
72308;BME280;60257;42.638;23.376;2023-05-08T00:32:49;94771.22;;;12.38;62.04
72308;BME280;60257;42.638;23.376;2023-05-08T00:35:14;94783.44;;;12.41;62.52
72308;BME280;60257;42.638;23.376;2023-05-08T00:37:40;94788.59;;;12.42;62.78
72308;BME280;60257;42.638;23.376;2023-05-08T00:40:08;94795.59;;;12.40;62.78
72308;BME280;60257;42.638;23.376;2023-05-08T00:42:34;94781.31;;;12.34;62.79
72308;BME280;60257;42.638;23.376;2023-05-08T00:44:59;94790.97;;;12.28;62.83
72308;BME280;60257;42.638;23.376;2023-05-08T00:47:25;94784.78;;;12.31;63.03
72308;BME280;60257;42.638;23.376;2023-05-08T00:49:50;94775.97;;;12.25;62.98
72308;BME280;60257;42.638;23.376;2023-05-08T00:52:17;94793.28;;;12.26;63.43
72308;BME280;60257;42.638;23.376;2023-05-08T00:54:43;94787.72;;;12.22;63.29
72308;BME280;60257;42.638;23.376;2023-05-08T00:57:09;94783.88;;;12.27;63.45
72308;BME280;60257;42.638;23.376;2023-05-08T00:59:35;94793.44;;;12.17;63.77
72308;BME280;60257;42.638;23.376;2023-05-08T01:02:02;94788.56;;;12.11;63.82
72308;BME280;60257;42.638;23.376;2023-05-08T01:04:28;94794.41;;;12.09;63.97
72308;BME280;60257;42.638;23.376;2023-05-08T01:06:54;94788.91;;;12.09;63.78
72308;BME280;60257;42.638;23.376;2023-05-08T01:09:20;94799.91;;;12.09;64.42
72308;BME280;60257;42.638;23.376;2023-05-08T01:15:08;94797.34;;;12.01;65.28
72308;BME280;60257;42.638;23.376;2023-05-08T01:18:16;94798.75;;;11.94;65.66
72308;BME280;60257;42.638;23.376;2023-05-08T01:29:12;94800.50;;;11.87;65.40
72308;BME280;60257;42.638;23.376;2023-05-08T01:34:30;94803.19;;;11.71;66.46
72308;BME280;60257;42.638;23.376;2023-05-08T01:37:26;94793.00;;;11.72;65.76
72308;BME280;60257;42.638;23.376;2023-05-08T01:40:17;94793.13;;;11.75;65.93
72308;BME280;60257;42.638;23.376;2023-05-08T01:42:49;94781.94;;;11.68;65.84
72308;BME280;60257;42.638;23.376;2023-05-08T01:45:25;94780.66;;;11.66;66.07
72308;BME280;60257;42.638;23.376;2023-05-08T01:48:16;94788.22;;;11.69;66.66
72308;BME280;60257;42.638;23.376;2023-05-08T01:50:48;94787.31;;;11.65;66.73
72308;BME280;60257;42.638;23.376;2023-05-08T01:53:25;94762.00;;;11.43;67.45
72308;BME280;60257;42.638;23.376;2023-05-08T01:55:58;94757.66;;;11.42;67.57
72308;BME280;60257;42.638;23.376;2023-05-08T01:58:25;94773.00;;;11.43;68.29
72308;BME280;60257;42.638;23.376;2023-05-08T02:00:52;94778.94;;;11.45;68.54
72308;BME280;60257;42.638;23.376;2023-05-08T02:03:21;94767.09;;;11.29;69.03
72308;BME280;60257;42.638;23.376;2023-05-08T02:05:48;94782.66;;;11.25;69.64
72308;BME280;60257;42.638;23.376;2023-05-08T02:08:17;94776.50;;;11.16;69.64
72308;BME280;60257;42.638;23.376;2023-05-08T02:10:44;94758.81;;;11.13;69.83
72308;BME280;60257;42.638;23.376;2023-05-08T02:13:12;94785.84;;;11.27;70.18
72308;BME280;60257;42.638;23.376;2023-05-08T02:15:40;94783.47;;;11.26;69.96
72308;BME280;60257;42.638;23.376;2023-05-08T02:18:07;94783.66;;;11.33;69.82
72308;BME280;60257;42.638;23.376;2023-05-08T02:20:33;94786.75;;;11.31;70.04
72308;BME280;60257;42.638;23.376;2023-05-08T02:23:01;94796.16;;;11.30;70.25
72308;BME280;60257;42.638;23.376;2023-05-08T02:25:28;94780.34;;;10.99;71.06
72308;BME280;60257;42.638;23.376;2023-05-08T02:27:55;94783.09;;;10.99;71.18
72308;BME280;60257;42.638;23.376;2023-05-08T02:30:24;94795.41;;;11.05;71.27
72308;BME280;60257;42.638;23.376;2023-05-08T02:32:52;94791.97;;;11.08;71.23
72308;BME280;60257;42.638;23.376;2023-05-08T02:35:18;94801.56;;;11.14;70.92
72308;BME280;60257;42.638;23.376;2023-05-08T02:37:51;94785.00;;;11.11;71.21
72308;BME280;60257;42.638;23.376;2023-05-08T02:40:19;94796.09;;;11.14;71.08
72308;BME280;60257;42.638;23.376;2023-05-08T02:42:46;94782.16;;;10.95;71.15
72308;BME280;60257;42.638;23.376;2023-05-08T02:45:13;94786.13;;;11.10;71.22
72308;BME280;60257;42.638;23.376;2023-05-08T02:50:15;94781.50;;;11.26;70.29
72308;BME280;60257;42.638;23.376;2023-05-08T02:52:52;94780.72;;;11.26;70.22
72308;BME280;60257;42.638;23.376;2023-05-08T02:55:47;94796.25;;;11.34;70.22
72308;BME280;60257;42.638;23.376;2023-05-08T02:58:21;94794.31;;;11.34;70.11
72308;BME280;60257;42.638;23.376;2023-05-08T03:01:24;94800.19;;;11.21;70.55
72308;BME280;60257;42.638;23.376;2023-05-08T03:04:05;94794.63;;;11.05;71.42
72308;BME280;60257;42.638;23.376;2023-05-08T03:06:44;94802.25;;;11.11;71.03
72308;BME280;60257;42.638;23.376;2023-05-08T03:10:16;94795.84;;;11.19;71.11
72308;BME280;60257;42.638;23.376;2023-05-08T03:12:24;94783.25;;;11.18;71.29
72308;BME280;60257;42.638;23.376;2023-05-08T03:15:02;94791.69;;;11.26;71.45
72308;BME280;60257;42.638;23.376;2023-05-08T03:17:31;94796.72;;;11.24;71.14
72308;BME280;60257;42.638;23.376;2023-05-08T03:20:01;94801.28;;;11.32;71.23
72308;BME280;60257;42.638;23.376;2023-05-08T03:22:29;94803.00;;;11.24;71.19
72308;BME280;60257;42.638;23.376;2023-05-08T03:24:57;94800.53;;;11.19;71.23
72308;BME280;60257;42.638;23.376;2023-05-08T03:27:24;94810.81;;;11.22;71.38
72308;BME280;60257;42.638;23.376;2023-05-08T03:29:51;94820.19;;;11.21;71.53
72308;BME280;60257;42.638;23.376;2023-05-08T03:32:18;94815.50;;;11.22;71.46
72308;BME280;60257;42.638;23.376;2023-05-08T03:34:47;94806.94;;;11.11;71.58
72308;BME280;60257;42.638;23.376;2023-05-08T03:37:13;94812.56;;;11.14;71.66
72308;BME280;60257;42.638;23.376;2023-05-08T03:39:38;94814.38;;;11.23;71.40
72308;BME280;60257;42.638;23.376;2023-05-08T03:42:04;94801.78;;;11.09;71.68
72308;BME280;60257;42.638;23.376;2023-05-08T03:44:31;94813.19;;;11.24;71.47
72308;BME280;60257;42.638;23.376;2023-05-08T03:46:57;94805.66;;;11.21;71.50
72308;BME280;60257;42.638;23.376;2023-05-08T03:49:24;94807.03;;;11.27;71.55
72308;BME280;60257;42.638;23.376;2023-05-08T03:51:52;94798.44;;;11.28;71.46
72308;BME280;60257;42.638;23.376;2023-05-08T03:54:19;94811.09;;;11.45;71.17
72308;BME280;60257;42.638;23.376;2023-05-08T03:56:50;94804.88;;;11.48;71.16
72308;BME280;60257;42.638;23.376;2023-05-08T03:59:23;94807.34;;;11.65;70.20
72308;BME280;60257;42.638;23.376;2023-05-08T04:01:57;94825.97;;;11.72;70.28
72308;BME280;60257;42.638;23.376;2023-05-08T04:04:32;94822.03;;;11.85;70.15
72308;BME280;60257;42.638;23.376;2023-05-08T04:07:09;94816.66;;;11.88;70.17
72308;BME280;60257;42.638;23.376;2023-05-08T04:15:22;94823.28;;;11.87;69.17
72308;BME280;60257;42.638;23.376;2023-05-08T04:17:50;94824.25;;;11.79;69.39
72308;BME280;60257;42.638;23.376;2023-05-08T04:20:19;94826.91;;;11.64;69.66
72308;BME280;60257;42.638;23.376;2023-05-08T04:22:49;94830.00;;;11.62;69.92
72308;BME280;60257;42.638;23.376;2023-05-08T04:25:16;94830.91;;;11.66;69.82
72308;BME280;60257;42.638;23.376;2023-05-08T04:27:43;94833.75;;;11.70;70.34
72308;BME280;60257;42.638;23.376;2023-05-08T04:30:09;94837.28;;;11.70;70.14
72308;BME280;60257;42.638;23.376;2023-05-08T04:32:36;94826.66;;;11.81;70.30
72308;BME280;60257;42.638;23.376;2023-05-08T04:35:03;94839.81;;;12.03;69.37
72308;BME280;60257;42.638;23.376;2023-05-08T04:37:30;94831.13;;;12.17;68.78
72308;BME280;60257;42.638;23.376;2023-05-08T04:39:56;94840.81;;;12.26;68.46
72308;BME280;60257;42.638;23.376;2023-05-08T04:42:22;94830.44;;;12.20;67.93
72308;BME280;60257;42.638;23.376;2023-05-08T04:44:49;94829.22;;;12.33;67.84
72308;BME280;60257;42.638;23.376;2023-05-08T04:47:14;94820.09;;;12.29;67.61
72308;BME280;60257;42.638;23.376;2023-05-08T04:49:40;94823.53;;;12.42;67.40
72308;BME280;60257;42.638;23.376;2023-05-08T04:52:05;94817.94;;;12.22;68.07
72308;BME280;60257;42.638;23.376;2023-05-08T04:54:32;94819.97;;;12.41;67.63
72308;BME280;60257;42.638;23.376;2023-05-08T04:56:57;94821.50;;;12.39;67.40
72308;BME280;60257;42.638;23.376;2023-05-08T04:59:23;94818.84;;;12.58;67.42
72308;BME280;60257;42.638;23.376;2023-05-08T05:01:51;94820.59;;;12.66;66.54
72308;BME280;60257;42.638;23.376;2023-05-08T05:04:17;94823.19;;;12.43;66.87
72308;BME280;60257;42.638;23.376;2023-05-08T05:06:42;94811.66;;;12.38;66.02
72308;BME280;60257;42.638;23.376;2023-05-08T05:09:08;94827.88;;;12.58;66.19
72308;BME280;60257;42.638;23.376;2023-05-08T05:11:34;94807.31;;;12.68;66.06
72308;BME280;60257;42.638;23.376;2023-05-08T05:14:00;94803.47;;;12.57;65.57
72308;BME280;60257;42.638;23.376;2023-05-08T05:16:25;94809.69;;;12.69;65.58
72308;BME280;60257;42.638;23.376;2023-05-08T05:18:52;94809.88;;;12.77;65.58
72308;BME280;60257;42.638;23.376;2023-05-08T05:21:18;94816.06;;;12.73;65.46
72308;BME280;60257;42.638;23.376;2023-05-08T05:23:43;94813.19;;;12.86;65.71
72308;BME280;60257;42.638;23.376;2023-05-08T05:26:09;94807.25;;;13.15;65.77
72308;BME280;60257;42.638;23.376;2023-05-08T05:28:34;94796.09;;;13.27;65.42
72308;BME280;60257;42.638;23.376;2023-05-08T05:31:00;94809.59;;;13.52;64.81
72308;BME280;60257;42.638;23.376;2023-05-08T05:33:25;94815.47;;;13.69;64.68
72308;BME280;60257;42.638;23.376;2023-05-08T05:35:51;94807.41;;;13.80;64.05
72308;BME280;60257;42.638;23.376;2023-05-08T05:38:16;94806.53;;;13.95;63.91
72308;BME280;60257;42.638;23.376;2023-05-08T05:40:42;94801.81;;;13.96;63.81
72308;BME280;60257;42.638;23.376;2023-05-08T05:43:07;94799.94;;;14.00;63.00
72308;BME280;60257;42.638;23.376;2023-05-08T05:45:33;94801.13;;;14.02;62.93
72308;BME280;60257;42.638;23.376;2023-05-08T05:47:58;94804.47;;;14.11;62.62
72308;BME280;60257;42.638;23.376;2023-05-08T05:50:24;94806.44;;;14.34;61.92
72308;BME280;60257;42.638;23.376;2023-05-08T05:52:50;94807.31;;;14.38;62.49
72308;BME280;60257;42.638;23.376;2023-05-08T05:55:16;94810.34;;;14.52;63.74
72308;BME280;60257;42.638;23.376;2023-05-08T05:57:41;94799.09;;;14.64;62.36
72308;BME280;60257;42.638;23.376;2023-05-08T06:00:07;94806.59;;;14.86;62.50
72308;BME280;60257;42.638;23.376;2023-05-08T06:02:35;94799.75;;;14.80;60.14
72308;BME280;60257;42.638;23.376;2023-05-08T06:05:00;94805.22;;;14.99;61.46
72308;BME280;60257;42.638;23.376;2023-05-08T06:07:26;94777.22;;;15.01;62.05
72308;BME280;60257;42.638;23.376;2023-05-08T06:09:52;94802.41;;;15.26;59.53
72308;BME280;60257;42.638;23.376;2023-05-08T06:12:18;94777.97;;;14.98;59.20
72308;BME280;60257;42.638;23.376;2023-05-08T06:14:43;94785.97;;;14.80;59.69
72308;BME280;60257;42.638;23.376;2023-05-08T06:17:09;94773.16;;;14.95;59.62
72308;BME280;60257;42.638;23.376;2023-05-08T06:19:35;94789.03;;;15.28;58.78
72308;BME280;60257;42.638;23.376;2023-05-08T06:22:01;94789.75;;;15.51;58.17
72308;BME280;60257;42.638;23.376;2023-05-08T06:24:27;94775.25;;;15.58;57.90
72308;BME280;60257;42.638;23.376;2023-05-08T06:26:52;94786.97;;;15.81;57.07
72308;BME280;60257;42.638;23.376;2023-05-08T06:29:18;94774.53;;;15.98;56.08
72308;BME280;60257;42.638;23.376;2023-05-08T06:31:43;94784.66;;;16.20;55.17
72308;BME280;60257;42.638;23.376;2023-05-08T06:34:09;94787.97;;;16.33;55.31
72308;BME280;60257;42.638;23.376;2023-05-08T06:36:34;94777.69;;;16.37;54.84
72308;BME280;60257;42.638;23.376;2023-05-08T06:39:03;94789.06;;;16.25;54.27
72308;BME280;60257;42.638;23.376;2023-05-08T06:41:29;94783.25;;;16.37;54.10
72308;BME280;60257;42.638;23.376;2023-05-08T06:43:55;94789.59;;;16.00;53.78
72308;BME280;60257;42.638;23.376;2023-05-08T06:46:20;94784.56;;;16.09;54.19
72308;BME280;60257;42.638;23.376;2023-05-08T06:48:46;94781.31;;;16.41;53.26
72308;BME280;60257;42.638;23.376;2023-05-08T06:51:11;94778.81;;;16.69;52.09
72308;BME280;60257;42.638;23.376;2023-05-08T06:53:37;94777.34;;;16.82;52.22
72308;BME280;60257;42.638;23.376;2023-05-08T06:56:02;94783.44;;;17.02;51.16
72308;BME280;60257;42.638;23.376;2023-05-08T06:58:27;94779.97;;;17.16;51.53
72308;BME280;60257;42.638;23.376;2023-05-08T07:00:55;94789.50;;;17.22;53.39
72308;BME280;60257;42.638;23.376;2023-05-08T07:03:21;94776.09;;;17.31;53.19
72308;BME280;60257;42.638;23.376;2023-05-08T07:05:46;94780.59;;;17.57;51.70
72308;BME280;60257;42.638;23.376;2023-05-08T07:08:12;94774.69;;;17.65;51.51
72308;BME280;60257;42.638;23.376;2023-05-08T07:10:37;94784.66;;;17.74;50.70
72308;BME280;60257;42.638;23.376;2023-05-08T07:13:03;94788.09;;;17.53;50.38
72308;BME280;60257;42.638;23.376;2023-05-08T07:15:30;94786.84;;;17.40;50.50
72308;BME280;60257;42.638;23.376;2023-05-08T07:17:55;94776.69;;;17.61;49.99
72308;BME280;60257;42.638;23.376;2023-05-08T07:20:21;94790.53;;;17.61;50.08
72308;BME280;60257;42.638;23.376;2023-05-08T07:22:48;94780.34;;;17.87;49.56
72308;BME280;60257;42.638;23.376;2023-05-08T07:25:14;94790.31;;;18.02;49.70
72308;BME280;60257;42.638;23.376;2023-05-08T07:27:40;94793.19;;;17.40;51.19
72308;BME280;60257;42.638;23.376;2023-05-08T07:30:07;94785.00;;;17.61;50.57
72308;BME280;60257;42.638;23.376;2023-05-08T07:32:33;94789.44;;;17.77;50.53
72308;BME280;60257;42.638;23.376;2023-05-08T07:34:58;94767.22;;;17.69;51.13
72308;BME280;60257;42.638;23.376;2023-05-08T07:37:24;94793.47;;;17.97;50.20
72308;BME280;60257;42.638;23.376;2023-05-08T07:39:49;94786.81;;;18.23;49.24
72308;BME280;60257;42.638;23.376;2023-05-08T07:42:15;94784.47;;;18.53;48.73
72308;BME280;60257;42.638;23.376;2023-05-08T07:44:42;94794.03;;;18.66;47.78
72308;BME280;60257;42.638;23.376;2023-05-08T07:47:08;94788.50;;;18.66;47.15
72308;BME280;60257;42.638;23.376;2023-05-08T07:49:33;94792.88;;;18.74;47.33
72308;BME280;60257;42.638;23.376;2023-05-08T07:51:59;94792.88;;;18.78;47.61
72308;BME280;60257;42.638;23.376;2023-05-08T07:54:24;94799.22;;;18.75;47.46
72308;BME280;60257;42.638;23.376;2023-05-08T07:56:50;94789.28;;;18.67;47.99
72308;BME280;60257;42.638;23.376;2023-05-08T07:59:16;94782.09;;;18.44;48.33
72308;BME280;60257;42.638;23.376;2023-05-08T08:01:41;94801.13;;;18.39;48.45
72308;BME280;60257;42.638;23.376;2023-05-08T08:04:11;94797.97;;;18.48;48.13
72308;BME280;60257;42.638;23.376;2023-05-08T08:06:37;94799.16;;;18.39;48.12
72308;BME280;60257;42.638;23.376;2023-05-08T08:09:03;94813.47;;;18.59;48.18
72308;BME280;60257;42.638;23.376;2023-05-08T08:11:29;94802.00;;;18.64;47.71
72308;BME280;60257;42.638;23.376;2023-05-08T08:13:54;94798.75;;;18.34;47.97
72308;BME280;60257;42.638;23.376;2023-05-08T08:16:20;94797.56;;;18.42;47.88
72308;BME280;60257;42.638;23.376;2023-05-08T08:18:45;94793.56;;;18.36;47.67
72308;BME280;60257;42.638;23.376;2023-05-08T08:21:11;94805.84;;;18.28;48.62
72308;BME280;60257;42.638;23.376;2023-05-08T08:23:36;94794.66;;;17.99;48.95
72308;BME280;60257;42.638;23.376;2023-05-08T08:26:01;94802.69;;;18.26;48.21
72308;BME280;60257;42.638;23.376;2023-05-08T08:28:27;94800.41;;;18.77;47.66
72308;BME280;60257;42.638;23.376;2023-05-08T08:30:52;94786.53;;;18.88;46.62
72308;BME280;60257;42.638;23.376;2023-05-08T08:33:18;94773.44;;;19.03;46.33
72308;BME280;60257;42.638;23.376;2023-05-08T08:35:43;94780.19;;;19.02;46.70
72308;BME280;60257;42.638;23.376;2023-05-08T08:38:09;94784.91;;;19.22;46.21
72308;BME280;60257;42.638;23.376;2023-05-08T08:40:41;94793.22;;;19.40;45.77
72308;BME280;60257;42.638;23.376;2023-05-08T08:43:07;94786.09;;;19.50;45.34
72308;BME280;60257;42.638;23.376;2023-05-08T08:45:33;94781.31;;;19.40;45.85
72308;BME280;60257;42.638;23.376;2023-05-08T08:48:02;94770.19;;;19.54;45.69
72308;BME280;60257;42.638;23.376;2023-05-08T08:50:32;94778.53;;;19.54;45.90
72308;BME280;60257;42.638;23.376;2023-05-08T08:55:23;94782.44;;;19.67;45.58
72308;BME280;60257;42.638;23.376;2023-05-08T08:58:18;94772.47;;;19.87;44.94
72308;BME280;60257;42.638;23.376;2023-05-08T09:00:45;94769.34;;;19.68;46.21
72308;BME280;60257;42.638;23.376;2023-05-08T09:03:12;94774.13;;;19.64;46.15
72308;BME280;60257;42.638;23.376;2023-05-08T09:05:38;94764.13;;;19.84;46.19
72308;BME280;60257;42.638;23.376;2023-05-08T09:08:05;94753.06;;;19.59;46.39
72308;BME280;60257;42.638;23.376;2023-05-08T09:10:31;94743.97;;;19.41;47.21
72308;BME280;60257;42.638;23.376;2023-05-08T09:12:58;94762.22;;;19.52;47.27
72308;BME280;60257;42.638;23.376;2023-05-08T09:15:24;94748.72;;;19.37;48.32
72308;BME280;60257;42.638;23.376;2023-05-08T09:17:49;94735.25;;;19.32;48.45
72308;BME280;60257;42.638;23.376;2023-05-08T09:20:15;94741.22;;;19.30;47.58
72308;BME280;60257;42.638;23.376;2023-05-08T09:22:41;94739.59;;;19.40;47.45
72308;BME280;60257;42.638;23.376;2023-05-08T09:25:07;94732.09;;;19.26;48.30
72308;BME280;60257;42.638;23.376;2023-05-08T09:27:33;94746.75;;;19.37;47.71
72308;BME280;60257;42.638;23.376;2023-05-08T09:30:05;94738.03;;;19.21;48.40
72308;BME280;60257;42.638;23.376;2023-05-08T09:32:33;94732.84;;;19.41;47.99
72308;BME280;60257;42.638;23.376;2023-05-08T09:34:59;94722.91;;;19.54;47.90
72308;BME280;60257;42.638;23.376;2023-05-08T09:37:26;94706.53;;;19.74;47.11
72308;BME280;60257;42.638;23.376;2023-05-08T09:39:52;94706.00;;;20.00;46.58
72308;BME280;60257;42.638;23.376;2023-05-08T09:42:18;94712.66;;;20.20;46.57
72308;BME280;60257;42.638;23.376;2023-05-08T09:44:48;94705.50;;;20.19;46.40
72308;BME280;60257;42.638;23.376;2023-05-08T09:47:16;94722.13;;;20.33;46.00
72308;BME280;60257;42.638;23.376;2023-05-08T09:50:09;94716.19;;;20.28;45.52
72308;BME280;60257;42.638;23.376;2023-05-08T09:52:37;94731.66;;;20.32;46.28
72308;BME280;60257;42.638;23.376;2023-05-08T09:55:07;94725.97;;;20.54;45.12
72308;BME280;60257;42.638;23.376;2023-05-08T09:57:38;94746.41;;;20.88;44.64
72308;BME280;60257;42.638;23.376;2023-05-08T10:00:09;94745.09;;;21.00;44.04
72308;BME280;60257;42.638;23.376;2023-05-08T10:02:36;94737.94;;;20.99;44.02
72308;BME280;60257;42.638;23.376;2023-05-08T10:05:03;94732.22;;;21.20;43.57
72308;BME280;60257;42.638;23.376;2023-05-08T10:07:31;94723.19;;;20.98;44.38
72308;BME280;60257;42.638;23.376;2023-05-08T10:10:01;94737.31;;;21.29;44.03
72308;BME280;60257;42.638;23.376;2023-05-08T10:12:27;94727.53;;;21.47;43.46
72308;BME280;60257;42.638;23.376;2023-05-08T10:14:53;94726.06;;;21.70;43.33
72308;BME280;60257;42.638;23.376;2023-05-08T10:17:34;94715.13;;;21.52;43.31
72308;BME280;60257;42.638;23.376;2023-05-08T10:20:05;94720.97;;;21.65;43.23
72308;BME280;60257;42.638;23.376;2023-05-08T10:22:35;94716.31;;;21.85;43.43
72308;BME280;60257;42.638;23.376;2023-05-08T10:25:01;94707.00;;;21.99;43.80
72308;BME280;60257;42.638;23.376;2023-05-08T10:27:34;94703.16;;;21.85;43.86
72308;BME280;60257;42.638;23.376;2023-05-08T10:30:03;94706.09;;;21.37;44.00
72308;BME280;60257;42.638;23.376;2023-05-08T10:32:36;94703.22;;;21.48;44.49
72308;BME280;60257;42.638;23.376;2023-05-08T10:35:08;94679.09;;;21.31;44.62
72308;BME280;60257;42.638;23.376;2023-05-08T10:37:34;94690.50;;;21.02;45.04
72308;BME280;60257;42.638;23.376;2023-05-08T10:40:02;94704.09;;;21.41;45.25
72308;BME280;60257;42.638;23.376;2023-05-08T10:42:28;94703.03;;;21.62;44.13
72308;BME280;60257;42.638;23.376;2023-05-08T10:44:54;94700.50;;;21.75;44.41
72308;BME280;60257;42.638;23.376;2023-05-08T10:50:00;94699.16;;;21.86;43.35
72308;BME280;60257;42.638;23.376;2023-05-08T10:57:23;94679.84;;;20.94;45.77
72308;BME280;60257;42.638;23.376;2023-05-08T10:59:48;94681.97;;;20.79;47.16
72308;BME280;60257;42.638;23.376;2023-05-08T11:02:14;94684.03;;;21.12;45.87
72308;BME280;60257;42.638;23.376;2023-05-08T11:04:41;94677.75;;;21.05;45.45
72308;BME280;60257;42.638;23.376;2023-05-08T11:07:07;94681.50;;;20.84;46.27
72308;BME280;60257;42.638;23.376;2023-05-08T11:12:19;94673.13;;;20.88;46.51
72308;BME280;60257;42.638;23.376;2023-05-08T11:14:55;94671.69;;;21.13;46.42
72308;BME280;60257;42.638;23.376;2023-05-08T11:17:23;94663.03;;;21.01;45.87
72308;BME280;60257;42.638;23.376;2023-05-08T11:19:59;94662.97;;;21.08;45.59
72308;BME280;60257;42.638;23.376;2023-05-08T11:22:35;94659.44;;;21.04;46.68
72308;BME280;60257;42.638;23.376;2023-05-08T11:25:06;94661.69;;;21.16;47.48
72308;BME280;60257;42.638;23.376;2023-05-08T11:28:07;94650.38;;;21.34;46.82
72308;BME280;60257;42.638;23.376;2023-05-08T11:35:50;94644.63;;;20.69;46.66
72308;BME280;60257;42.638;23.376;2023-05-08T11:38:20;94646.25;;;20.67;47.34
72308;BME280;60257;42.638;23.376;2023-05-08T11:40:57;94633.06;;;20.71;46.29
72308;BME280;60257;42.638;23.376;2023-05-08T11:46:03;94623.41;;;20.42;46.77
72308;BME280;60257;42.638;23.376;2023-05-08T11:48:31;94603.38;;;20.54;47.56
72308;BME280;60257;42.638;23.376;2023-05-08T11:51:01;94614.34;;;20.75;46.66
72308;BME280;60257;42.638;23.376;2023-05-08T11:53:31;94602.34;;;20.78;46.45
72308;BME280;60257;42.638;23.376;2023-05-08T11:55:57;94601.88;;;20.87;46.93
72308;BME280;60257;42.638;23.376;2023-05-08T11:58:23;94593.72;;;21.03;46.38
72308;BME280;60257;42.638;23.376;2023-05-08T12:00:48;94593.41;;;21.31;45.46
72308;BME280;60257;42.638;23.376;2023-05-08T12:03:19;94587.38;;;21.67;45.03
72308;BME280;60257;42.638;23.376;2023-05-08T12:05:45;94585.63;;;21.49;44.22
72308;BME280;60257;42.638;23.376;2023-05-08T12:08:12;94584.31;;;21.84;43.74
72308;BME280;60257;42.638;23.376;2023-05-08T12:10:51;94586.06;;;22.29;42.16
72308;BME280;60257;42.638;23.376;2023-05-08T12:13:25;94578.38;;;22.59;41.72
72308;BME280;60257;42.638;23.376;2023-05-08T12:15:57;94585.31;;;22.75;41.48
72308;BME280;60257;42.638;23.376;2023-05-08T12:18:23;94582.38;;;22.82;41.34
72308;BME280;60257;42.638;23.376;2023-05-08T12:20:51;94577.72;;;22.72;40.79
72308;BME280;60257;42.638;23.376;2023-05-08T12:23:17;94578.78;;;22.81;40.89
72308;BME280;60257;42.638;23.376;2023-05-08T12:25:43;94569.84;;;22.90;40.20
72308;BME280;60257;42.638;23.376;2023-05-08T12:28:09;94579.63;;;22.78;40.48
72308;BME280;60257;42.638;23.376;2023-05-08T12:30:35;94572.91;;;22.52;41.37
72308;BME280;60257;42.638;23.376;2023-05-08T12:33:02;94562.44;;;22.33;40.87
72308;BME280;60257;42.638;23.376;2023-05-08T12:35:29;94562.19;;;22.24;40.72
72308;BME280;60257;42.638;23.376;2023-05-08T12:38:00;94557.34;;;22.28;40.44
72308;BME280;60257;42.638;23.376;2023-05-08T12:40:28;94562.94;;;22.01;41.23
72308;BME280;60257;42.638;23.376;2023-05-08T12:42:54;94562.22;;;21.97;41.31
72308;BME280;60257;42.638;23.376;2023-05-08T12:45:21;94567.16;;;21.86;41.97
72308;BME280;60257;42.638;23.376;2023-05-08T12:47:51;94565.03;;;21.94;42.08
72308;BME280;60257;42.638;23.376;2023-05-08T12:50:19;94572.63;;;21.93;42.67
72308;BME280;60257;42.638;23.376;2023-05-08T12:52:48;94571.63;;;22.07;45.60
72308;BME280;60257;42.638;23.376;2023-05-08T12:55:27;94567.22;;;22.33;45.94
72308;BME280;60257;42.638;23.376;2023-05-08T12:58:02;94553.88;;;22.44;44.56
72308;BME280;60257;42.638;23.376;2023-05-08T13:00:49;94552.31;;;22.43;45.40
72308;BME280;60257;42.638;23.376;2023-05-08T13:03:26;94551.22;;;22.37;47.00
72308;BME280;60257;42.638;23.376;2023-05-08T13:05:54;94531.78;;;22.06;48.25
72308;BME280;60257;42.638;23.376;2023-05-08T13:08:34;94543.00;;;22.26;48.33
72308;BME280;60257;42.638;23.376;2023-05-08T13:11:00;94539.59;;;22.38;46.17
72308;BME280;60257;42.638;23.376;2023-05-08T13:13:29;94544.94;;;22.06;47.16
72308;BME280;60257;42.638;23.376;2023-05-08T13:15:55;94557.50;;;21.64;47.80
72308;BME280;60257;42.638;23.376;2023-05-08T13:18:24;94568.72;;;21.30;47.85
72308;BME280;60257;42.638;23.376;2023-05-08T13:20:50;94570.22;;;21.04;47.03
72308;BME280;60257;42.638;23.376;2023-05-08T13:23:16;94572.88;;;20.77;47.97
72308;BME280;60257;42.638;23.376;2023-05-08T13:25:41;94584.91;;;20.70;48.44
72308;BME280;60257;42.638;23.376;2023-05-08T13:28:08;94586.25;;;20.59;48.78
72308;BME280;60257;42.638;23.376;2023-05-08T13:30:35;94574.91;;;20.32;49.89
72308;BME280;60257;42.638;23.376;2023-05-08T13:33:01;94586.63;;;20.09;50.55
72308;BME280;60257;42.638;23.376;2023-05-08T13:35:27;94579.09;;;20.06;50.58
72308;BME280;60257;42.638;23.376;2023-05-08T13:37:56;94594.75;;;19.82;51.06
72308;BME280;60257;42.638;23.376;2023-05-08T13:40:23;94593.28;;;19.67;51.92